createdAt,value
2023-03-28T00:00:37.708Z,44.22
2023-03-28T00:03:03.513Z,44.43
2023-03-28T00:05:30.520Z,44.39
2023-03-28T00:07:56.797Z,44.46
2023-03-28T00:10:23.111Z,44.17
2023-03-28T00:12:48.776Z,44.42
2023-03-28T00:15:14.602Z,44.17
2023-03-28T00:17:40.880Z,44.46
2023-03-28T00:20:10.195Z,44.17
2023-03-28T00:22:37.397Z,44.22
2023-03-28T00:25:06.210Z,44.19
2023-03-28T00:27:32.725Z,44.17
2023-03-28T00:29:59.149Z,44.37
2023-03-28T00:32:24.901Z,44.45
2023-03-28T00:34:50.766Z,44.19
2023-03-28T00:37:16.623Z,44.17
2023-03-28T00:39:49.156Z,44.42
2023-03-28T00:42:16.775Z,44.23
2023-03-28T00:44:50.019Z,44.23
2023-03-28T00:47:38.023Z,44.49
2023-03-28T00:50:10.095Z,44.25
2023-03-28T00:52:39.582Z,44.26
2023-03-28T00:55:09.630Z,44.19
2023-03-28T00:57:37.429Z,44.39
2023-03-28T01:00:05.764Z,44.49
2023-03-28T01:02:31.577Z,44.41
2023-03-28T01:05:00.041Z,44.40
2023-03-28T01:07:25.974Z,44.38
2023-03-28T01:09:51.695Z,44.28
2023-03-28T01:12:18.976Z,44.28
2023-03-28T01:14:44.851Z,44.08
2023-03-28T01:17:10.642Z,44.32
2023-03-28T01:20:16.680Z,44.41
2023-03-28T01:23:11.272Z,44.46
2023-03-28T01:26:16.728Z,44.20
2023-03-28T01:29:10.604Z,44.40
2023-03-28T01:32:06.147Z,44.24
2023-03-28T01:34:55.758Z,44.41
2023-03-28T01:37:43.355Z,44.42
2023-03-28T01:40:24.183Z,44.25
2023-03-28T01:48:53.929Z,44.42
2023-03-28T01:54:45.540Z,44.42
2023-03-28T01:57:20.637Z,44.17
2023-03-28T01:59:51.234Z,44.40
2023-03-28T02:02:36.051Z,44.42
2023-03-28T02:05:06.284Z,44.22
2023-03-28T02:07:33.031Z,44.42
2023-03-28T02:09:59.827Z,44.29
2023-03-28T02:12:30.127Z,44.39
2023-03-28T02:14:56.685Z,44.05
2023-03-28T02:17:23.690Z,44.47
2023-03-28T02:19:57.704Z,44.31
2023-03-28T02:22:33.129Z,44.48
2023-03-28T02:24:58.997Z,44.43
2023-03-28T02:27:24.670Z,44.23
2023-03-28T02:29:53.494Z,44.13
2023-03-28T02:32:21.044Z,44.31
2023-03-28T02:34:48.613Z,44.36
2023-03-28T02:37:46.844Z,44.40
2023-03-28T02:40:52.305Z,44.42
2023-03-28T02:46:19.080Z,44.20
2023-03-28T02:48:55.095Z,44.17
2023-03-28T02:51:30.826Z,44.23
2023-03-28T02:54:08.427Z,44.18
2023-03-28T02:56:52.064Z,43.95
2023-03-28T02:59:24.628Z,44.23
2023-03-28T03:01:50.815Z,44.30
2023-03-28T03:04:16.558Z,44.32
2023-03-28T03:06:44.746Z,44.28
2023-03-28T03:09:11.086Z,44.26
2023-03-28T03:11:36.745Z,44.27
2023-03-28T03:14:02.472Z,44.34
2023-03-28T03:16:28.381Z,44.43
2023-03-28T03:18:56.091Z,44.31
2023-03-28T03:21:23.041Z,44.12
2023-03-28T03:23:49.596Z,44.22
2023-03-28T03:26:15.413Z,44.27
2023-03-28T03:28:41.097Z,44.34
2023-03-28T03:31:07.280Z,44.27
2023-03-28T03:33:33.193Z,44.17
2023-03-28T03:35:59.209Z,44.15
2023-03-28T03:38:25.107Z,44.20
2023-03-28T03:40:50.761Z,44.38
2023-03-28T03:43:16.468Z,44.31
2023-03-28T03:45:45.033Z,44.35
2023-03-28T03:48:10.798Z,44.18
2023-03-28T03:50:36.736Z,44.18
2023-03-28T03:53:02.408Z,44.13
2023-03-28T03:55:28.070Z,44.30
2023-03-28T03:57:53.737Z,44.05
2023-03-28T04:00:19.518Z,44.14
2023-03-28T04:02:46.050Z,44.22
2023-03-28T04:05:11.738Z,44.21
2023-03-28T04:07:37.474Z,44.20
2023-03-28T04:10:03.924Z,43.98
2023-03-28T04:12:29.655Z,44.30
2023-03-28T04:14:55.462Z,44.25
2023-03-28T04:17:22.446Z,44.30
2023-03-28T04:19:48.903Z,44.17
2023-03-28T04:22:17.479Z,44.17
2023-03-28T04:24:43.911Z,44.43
2023-03-28T04:27:10.478Z,44.25
2023-03-28T04:29:36.283Z,44.20
2023-03-28T04:32:04.930Z,44.31
2023-03-28T04:34:32.856Z,44.09
2023-03-28T04:37:00.896Z,44.23
2023-03-28T04:39:28.412Z,44.26
2023-03-28T04:41:54.760Z,44.15
2023-03-28T04:44:21.418Z,44.35
2023-03-28T04:46:48.184Z,44.07
2023-03-28T04:49:14.329Z,44.50
2023-03-28T04:51:40.110Z,44.15
2023-03-28T04:54:05.772Z,44.16
2023-03-28T04:56:31.428Z,44.34
2023-03-28T04:58:57.071Z,44.05
2023-03-28T05:01:25.154Z,43.98
2023-03-28T05:03:50.916Z,44.17
2023-03-28T05:06:17.220Z,44.04
2023-03-28T05:08:43.689Z,44.02
2023-03-28T05:11:10.061Z,44.12
2023-03-28T05:13:35.775Z,44.31
2023-03-28T05:16:01.528Z,44.33
2023-03-28T05:18:27.180Z,44.07
2023-03-28T05:20:52.877Z,44.20
2023-03-28T05:23:18.530Z,44.18
2023-03-28T05:25:50.613Z,44.01
2023-03-28T05:28:16.260Z,44.07
2023-03-28T05:30:41.904Z,44.23
2023-03-28T05:33:07.590Z,44.19
2023-03-28T05:35:33.521Z,44.33
2023-03-28T05:37:59.192Z,44.13
2023-03-28T05:40:24.919Z,44.07
2023-03-28T05:42:50.556Z,43.45
2023-03-28T05:45:16.364Z,44.11
2023-03-28T05:47:42.143Z,44.08
2023-03-28T05:50:08.446Z,44.23
2023-03-28T05:52:34.424Z,44.23
2023-03-28T05:55:00.127Z,44.00
2023-03-28T05:57:25.793Z,44.12
2023-03-28T05:59:51.468Z,44.16
2023-03-28T06:02:19.712Z,44.13
2023-03-28T06:04:45.712Z,44.04
2023-03-28T06:07:12.766Z,44.21
2023-03-28T06:09:38.701Z,43.96
2023-03-28T06:12:05.234Z,44.07
2023-03-28T06:14:31.148Z,43.89
2023-03-28T06:16:57.184Z,43.91
2023-03-28T06:19:23.141Z,44.18
2023-03-28T06:21:48.907Z,44.05
2023-03-28T06:24:14.630Z,43.96
2023-03-28T06:26:40.620Z,44.22
2023-03-28T06:29:06.343Z,44.28
2023-03-28T06:31:32.325Z,44.00
2023-03-28T06:33:58.041Z,44.07
2023-03-28T06:36:23.907Z,43.51
2023-03-28T06:38:51.356Z,43.80
2023-03-28T06:41:17.022Z,43.90
2023-03-28T06:43:42.661Z,44.04
2023-03-28T06:46:09.468Z,43.93
2023-03-28T06:48:36.728Z,43.77
2023-03-28T06:51:03.196Z,43.84
2023-03-28T06:53:28.903Z,43.90
2023-03-28T06:55:54.915Z,43.90
2023-03-28T06:58:21.948Z,43.89
2023-03-28T07:00:50.515Z,43.65
2023-03-28T07:03:16.309Z,43.85
2023-03-28T07:05:42.944Z,43.76
2023-03-28T07:08:09.926Z,44.01
2023-03-28T07:10:36.782Z,41.65
2023-03-28T07:13:02.895Z,43.80
2023-03-28T07:15:28.540Z,43.75
2023-03-28T07:17:54.194Z,44.02
2023-03-28T07:20:20.765Z,43.84
2023-03-28T07:22:46.421Z,43.80
2023-03-28T07:25:12.089Z,44.04
2023-03-28T07:27:37.781Z,43.64
2023-03-28T07:30:04.177Z,43.90
2023-03-28T07:32:38.687Z,43.88
2023-03-28T07:35:08.925Z,43.89
2023-03-28T07:37:34.581Z,43.89
2023-03-28T07:40:00.214Z,43.83
2023-03-28T07:42:26.361Z,43.74
2023-03-28T07:44:52.780Z,43.92
2023-03-28T07:47:18.431Z,43.96
2023-03-28T07:49:44.568Z,43.99
2023-03-28T07:52:10.887Z,43.76
2023-03-28T07:54:36.874Z,43.87
2023-03-28T07:57:03.071Z,43.86
2023-03-28T07:59:28.733Z,43.71
2023-03-28T08:01:54.798Z,43.77
2023-03-28T08:04:20.471Z,43.96
2023-03-28T08:06:46.687Z,43.78
2023-03-28T08:09:14.797Z,43.39
2023-03-28T08:11:42.066Z,43.71
2023-03-28T08:14:10.878Z,42.22
2023-03-28T08:16:36.843Z,43.54
2023-03-28T08:19:10.586Z,43.67
2023-03-28T08:21:37.753Z,43.61
2023-03-28T08:24:04.175Z,40.83
2023-03-28T08:26:30.072Z,43.20
2023-03-28T08:28:58.064Z,43.38
2023-03-28T08:31:26.087Z,43.12
2023-03-28T08:33:53.070Z,43.68
2023-03-28T08:36:21.305Z,43.32
2023-03-28T08:38:49.166Z,43.45
2023-03-28T08:41:54.662Z,43.65
2023-03-28T08:44:55.634Z,43.76
2023-03-28T08:47:26.570Z,41.04
2023-03-28T08:49:57.258Z,42.77
2023-03-28T08:52:23.167Z,38.67
2023-03-28T08:55:28.717Z,42.41
2023-03-28T08:57:54.883Z,42.88
2023-03-28T09:00:32.177Z,42.99
2023-03-28T09:02:58.456Z,43.14
2023-03-28T09:05:35.661Z,43.18
2023-03-28T09:08:26.974Z,43.14
2023-03-28T09:11:12.770Z,43.14
2023-03-28T09:13:53.353Z,43.10
2023-03-28T09:16:42.766Z,42.24
2023-03-28T09:19:17.015Z,43.16
2023-03-28T09:22:15.130Z,43.31
2023-03-28T09:25:06.484Z,43.22
2023-03-28T09:27:47.978Z,43.36
2023-03-28T09:30:26.612Z,43.36
2023-03-28T09:32:55.362Z,43.34
2023-03-28T09:35:22.356Z,43.30
2023-03-28T09:37:52.057Z,43.14
2023-03-28T09:40:24.733Z,43.32
2023-03-28T09:45:40.163Z,43.08
2023-03-28T09:48:19.763Z,43.13
2023-03-28T09:50:45.752Z,43.03
2023-03-28T09:53:20.459Z,43.33
2023-03-28T09:55:58.101Z,43.29
2023-03-28T09:58:46.716Z,43.32
2023-03-28T10:01:48.922Z,43.31
2023-03-28T10:04:16.960Z,42.39
2023-03-28T10:06:44.156Z,43.09
2023-03-28T10:09:23.600Z,42.98
2023-03-28T10:11:53.648Z,43.18
2023-03-28T10:14:36.353Z,40.99
2023-03-28T10:17:07.177Z,42.75
2023-03-28T10:19:36.315Z,42.72
2023-03-28T10:22:06.546Z,42.94
2023-03-28T10:24:32.725Z,43.08
2023-03-28T10:27:07.414Z,42.88
2023-03-28T10:29:33.422Z,42.99
2023-03-28T10:31:59.113Z,43.16
2023-03-28T10:34:27.675Z,42.90
2023-03-28T10:36:53.422Z,43.15
2023-03-28T10:39:22.138Z,43.31
2023-03-28T10:41:53.378Z,43.25
2023-03-28T10:44:35.601Z,43.14
2023-03-28T10:47:05.080Z,43.31
2023-03-28T10:49:42.506Z,43.21
2023-03-28T10:52:31.738Z,42.92
2023-03-28T10:55:18.775Z,43.20
2023-03-28T10:58:14.074Z,43.28
2023-03-28T11:00:42.517Z,43.35
2023-03-28T11:03:10.419Z,43.11
2023-03-28T11:06:08.049Z,43.35
2023-03-28T11:08:44.008Z,43.08
2023-03-28T11:11:35.223Z,43.33
2023-03-28T11:17:21.521Z,39.36
2023-03-28T11:20:27.504Z,41.79
2023-03-28T11:23:06.438Z,41.69
2023-03-28T11:25:42.956Z,42.13
2023-03-28T11:28:25.605Z,42.39
2023-03-28T11:30:55.638Z,42.23
2023-03-28T11:33:47.250Z,42.27
2023-03-28T11:36:16.467Z,42.57
2023-03-28T11:38:48.563Z,42.62
2023-03-28T11:41:18.151Z,42.85
2023-03-28T11:43:50.674Z,42.76
2023-03-28T11:46:30.064Z,42.62
2023-03-28T11:49:35.596Z,42.46
2023-03-28T11:52:19.963Z,42.60
2023-03-28T11:54:53.230Z,42.82
2023-03-28T11:57:24.359Z,42.94
2023-03-28T12:00:06.166Z,42.86
2023-03-28T12:02:41.413Z,42.87
2023-03-28T12:05:38.511Z,42.83
2023-03-28T12:08:08.487Z,41.85
2023-03-28T12:10:36.451Z,41.15
2023-03-28T12:13:10.804Z,42.01
2023-03-28T12:15:48.525Z,41.35
2023-03-28T12:18:57.031Z,41.11
2023-03-28T12:21:41.749Z,42.79
2023-03-28T12:24:33.292Z,42.44
2023-03-28T12:27:16.796Z,42.64
2023-03-28T12:30:22.070Z,40.35
2023-03-28T12:32:54.780Z,40.52
2023-03-28T12:35:30.717Z,40.67
2023-03-28T12:38:10.465Z,40.48
2023-03-28T12:40:59.040Z,40.42
2023-03-28T12:43:58.954Z,40.99
2023-03-28T12:46:46.838Z,41.89
2023-03-28T12:49:28.627Z,40.24
2023-03-28T12:51:56.274Z,39.92
2023-03-28T12:54:25.744Z,42.49
2023-03-28T12:57:03.505Z,42.74
2023-03-28T13:00:09.500Z,40.41
2023-03-28T13:02:46.296Z,39.45
2023-03-28T13:05:41.162Z,42.19
2023-03-28T13:08:40.087Z,40.56
2023-03-28T13:14:31.934Z,42.36
2023-03-28T13:17:00.604Z,42.53
2023-03-28T13:22:41.431Z,42.36
2023-03-28T13:25:31.492Z,42.00
2023-03-28T13:28:01.826Z,42.68
2023-03-28T13:30:29.690Z,40.05
2023-03-28T13:32:58.998Z,41.58
2023-03-28T13:35:45.652Z,40.27
2023-03-28T13:38:14.779Z,41.56
2023-03-28T13:40:50.247Z,41.68
2023-03-28T13:43:51.821Z,42.14
2023-03-28T13:46:19.617Z,42.64
2023-03-28T13:48:50.752Z,42.40
2023-03-28T13:51:21.482Z,42.49
2023-03-28T13:53:48.469Z,42.42
2023-03-28T13:56:32.683Z,42.43
2023-03-28T13:58:59.819Z,42.37
2023-03-28T14:01:32.530Z,42.31
2023-03-28T14:03:58.242Z,42.65
2023-03-28T14:06:26.304Z,42.44
2023-03-28T14:08:54.993Z,42.64
2023-03-28T14:11:23.518Z,42.30
2023-03-28T14:13:51.929Z,42.47
2023-03-28T14:16:18.540Z,42.57
2023-03-28T14:18:46.604Z,42.50
2023-03-28T14:21:12.277Z,42.52
2023-03-28T14:23:39.672Z,42.28
2023-03-28T14:26:11.489Z,42.41
2023-03-28T14:28:39.781Z,42.25
2023-03-28T14:31:05.801Z,42.41
2023-03-28T14:33:36.275Z,42.21
2023-03-28T14:36:03.485Z,42.45
2023-03-28T14:38:33.792Z,42.28
2023-03-28T14:41:20.403Z,42.37
2023-03-28T14:43:51.242Z,42.49
2023-03-28T14:46:21.207Z,42.47
2023-03-28T14:48:46.990Z,42.27
2023-03-28T14:51:13.172Z,42.44
2023-03-28T14:53:42.005Z,42.30
2023-03-28T14:56:10.613Z,42.40
2023-03-28T14:58:37.811Z,42.71
2023-03-28T15:01:05.349Z,42.52
2023-03-28T15:03:34.108Z,42.28
2023-03-28T15:06:00.178Z,42.45
2023-03-28T15:08:30.836Z,42.32
2023-03-28T15:11:02.628Z,42.30
2023-03-28T15:13:35.478Z,42.43
2023-03-28T15:16:01.524Z,42.54
2023-03-28T15:18:29.474Z,42.56
2023-03-28T15:20:59.207Z,42.58
2023-03-28T15:23:29.070Z,42.67
2023-03-28T15:25:56.414Z,42.57
2023-03-28T15:28:24.734Z,42.56
2023-03-28T15:30:50.432Z,42.78
2023-03-28T15:33:19.441Z,42.43
2023-03-28T15:35:46.044Z,42.54
2023-03-28T15:40:49.284Z,42.72
2023-03-28T15:43:36.643Z,42.68
2023-03-28T15:46:07.726Z,42.77
2023-03-28T15:48:34.967Z,42.85
2023-03-28T15:51:04.117Z,42.47
2023-03-28T15:53:30.079Z,42.78
2023-03-28T15:55:58.995Z,42.74
2023-03-28T15:58:24.770Z,42.56
2023-03-28T16:00:52.150Z,42.70
2023-03-28T16:03:26.300Z,42.52
2023-03-28T16:05:59.732Z,42.83
2023-03-28T16:08:34.027Z,42.86
2023-03-28T16:11:00.649Z,42.62
2023-03-28T16:13:27.598Z,42.86
2023-03-28T16:15:53.376Z,42.80
2023-03-28T16:18:19.206Z,42.62
2023-03-28T16:20:45.724Z,42.85
2023-03-28T16:23:12.505Z,42.78
2023-03-28T16:25:39.596Z,42.95
2023-03-28T16:28:05.254Z,42.87
2023-03-28T16:30:35.962Z,42.82
2023-03-28T16:33:01.734Z,42.86
2023-03-28T16:35:27.878Z,42.88
2023-03-28T16:37:54.310Z,42.94
2023-03-28T16:40:20.927Z,42.89
2023-03-28T16:42:46.654Z,43.06
2023-03-28T16:45:13.412Z,43.06
2023-03-28T16:47:39.947Z,42.79
2023-03-28T16:50:07.826Z,42.75
2023-03-28T16:52:38.433Z,42.95
2023-03-28T16:55:06.625Z,42.98
2023-03-28T16:57:32.380Z,42.89
2023-03-28T16:59:58.021Z,42.93
2023-03-28T17:02:23.765Z,43.01
2023-03-28T17:04:50.184Z,42.76
2023-03-28T17:07:16.670Z,42.99
2023-03-28T17:09:42.372Z,42.99
2023-03-28T17:12:08.757Z,43.14
2023-03-28T17:14:35.288Z,42.79
2023-03-28T17:17:01.331Z,42.87
2023-03-28T17:19:28.165Z,42.96
2023-03-28T17:21:55.715Z,43.04
2023-03-28T17:24:22.712Z,42.99
2023-03-28T17:26:48.836Z,43.19
2023-03-28T17:29:15.277Z,42.85
2023-03-28T17:31:41.963Z,43.13
2023-03-28T17:34:08.476Z,43.07
2023-03-28T17:36:34.563Z,42.91
2023-03-28T17:39:01.188Z,42.97
2023-03-28T17:41:27.384Z,43.23
2023-03-28T17:43:55.003Z,42.97
2023-03-28T17:46:21.406Z,43.13
2023-03-28T17:48:47.692Z,43.10
2023-03-28T17:51:13.398Z,42.92
2023-03-28T17:53:40.240Z,43.12
2023-03-28T17:56:07.783Z,42.94
2023-03-28T17:58:33.801Z,43.10
2023-03-28T18:00:59.487Z,42.84
2023-03-28T18:03:25.924Z,43.23
2023-03-28T18:05:59.384Z,42.94
2023-03-28T18:08:26.449Z,42.84
2023-03-28T18:10:52.409Z,42.89
2023-03-28T18:13:18.208Z,42.93
2023-03-28T18:15:43.866Z,43.19
2023-03-28T18:18:11.804Z,42.84
2023-03-28T18:20:38.730Z,43.18
2023-03-28T18:23:04.373Z,43.02
2023-03-28T18:25:33.102Z,42.89
2023-03-28T18:27:59.039Z,42.90
2023-03-28T18:30:24.881Z,43.19
2023-03-28T18:32:50.526Z,43.20
2023-03-28T18:35:16.406Z,43.06
2023-03-28T18:37:42.055Z,43.16
2023-03-28T18:40:10.217Z,43.18
2023-03-28T18:42:36.128Z,43.08
2023-03-28T18:45:02.764Z,43.10
2023-03-28T18:47:28.450Z,43.17
2023-03-28T18:49:54.123Z,42.87
2023-03-28T18:52:21.000Z,43.09
2023-03-28T18:54:47.245Z,43.00
2023-03-28T18:57:12.977Z,42.98
2023-03-28T18:59:39.597Z,43.14
2023-03-28T19:02:07.745Z,42.83
2023-03-28T19:04:33.837Z,43.16
2023-03-28T19:06:59.490Z,42.92
2023-03-28T19:09:25.473Z,42.88
2023-03-28T19:11:51.670Z,43.03
2023-03-28T19:14:17.557Z,43.20
2023-03-28T19:16:43.220Z,43.11
2023-03-28T19:19:09.172Z,42.84
2023-03-28T19:21:34.845Z,42.96
2023-03-28T19:24:00.591Z,42.82
2023-03-28T19:26:26.480Z,42.83
2023-03-28T19:28:52.697Z,42.77
2023-03-28T19:31:20.946Z,42.90
2023-03-28T19:33:46.823Z,42.80
2023-03-28T19:36:12.593Z,42.87
2023-03-28T19:38:39.299Z,42.86
2023-03-28T19:41:09.756Z,42.82
2023-03-28T19:43:36.429Z,42.83
2023-03-28T19:46:04.135Z,42.80
2023-03-28T19:48:30.750Z,43.12
2023-03-28T19:50:56.898Z,42.88
2023-03-28T19:53:22.646Z,42.78
2023-03-28T19:55:51.360Z,43.05
2023-03-28T19:58:17.003Z,42.85
2023-03-28T20:00:42.657Z,42.77
2023-03-28T20:03:08.388Z,43.05
2023-03-28T20:05:39.776Z,42.87
2023-03-28T20:08:05.421Z,42.83
2023-03-28T20:10:31.197Z,42.96
2023-03-28T20:12:56.833Z,43.06
2023-03-28T20:15:22.493Z,42.92
2023-03-28T20:17:48.166Z,42.82
2023-03-28T20:20:14.474Z,43.03
2023-03-28T20:22:40.146Z,43.12
2023-03-28T20:25:06.365Z,43.14
2023-03-28T20:27:32.126Z,43.07
2023-03-28T20:29:57.813Z,42.94
2023-03-28T20:32:23.497Z,42.78
2023-03-28T20:34:49.160Z,43.04
2023-03-28T20:37:16.530Z,43.08
2023-03-28T20:39:47.477Z,43.04
2023-03-28T20:42:13.151Z,42.98
2023-03-28T20:44:38.790Z,43.02
2023-03-28T20:47:06.784Z,43.10
2023-03-28T20:49:33.331Z,43.10
2023-03-28T20:51:59.056Z,42.83
2023-03-28T20:54:26.989Z,42.95
2023-03-28T20:56:53.193Z,43.12
2023-03-28T20:59:19.203Z,43.07
2023-03-28T21:01:46.949Z,43.06
2023-03-28T21:04:13.668Z,43.02
2023-03-28T21:06:39.323Z,43.00
2023-03-28T21:09:07.256Z,43.04
2023-03-28T21:11:34.683Z,42.78
2023-03-28T21:14:01.008Z,42.89
2023-03-28T21:16:27.789Z,42.87
2023-03-28T21:18:53.478Z,42.79
2023-03-28T21:21:20.059Z,42.82
2023-03-28T21:23:46.186Z,42.98
2023-03-28T21:26:15.339Z,43.07
2023-03-28T21:28:41.091Z,42.88
2023-03-28T21:31:10.133Z,42.98
2023-03-28T21:33:36.882Z,42.93
2023-03-28T21:36:06.381Z,42.98
2023-03-28T21:38:32.566Z,43.03
2023-03-28T21:40:58.223Z,42.91
2023-03-28T21:43:23.977Z,43.15
2023-03-28T21:45:49.936Z,43.01
2023-03-28T21:48:16.023Z,42.83
2023-03-28T21:50:47.894Z,42.97
2023-03-28T21:53:13.539Z,42.81
2023-03-28T21:55:39.167Z,42.87
2023-03-28T21:58:04.821Z,42.86
2023-03-28T22:00:30.572Z,42.86
2023-03-28T22:02:56.295Z,42.79
2023-03-28T22:05:29.376Z,42.78
2023-03-28T22:07:55.818Z,42.73
2023-03-28T22:10:25.613Z,42.90
2023-03-28T22:12:57.834Z,42.82
2023-03-28T22:15:23.780Z,42.98
2023-03-28T22:17:49.443Z,42.97
2023-03-28T22:20:15.281Z,42.96
2023-03-28T22:22:44.034Z,42.87
2023-03-28T22:25:11.867Z,43.20
2023-03-28T22:27:38.623Z,43.00
2023-03-28T22:30:05.366Z,42.89
2023-03-28T22:32:31.277Z,43.08
2023-03-28T22:34:56.953Z,43.07
2023-03-28T22:37:22.768Z,42.87
2023-03-28T22:39:48.410Z,42.93
2023-03-28T22:42:14.095Z,43.06
2023-03-28T22:44:39.913Z,42.97
2023-03-28T22:47:05.549Z,43.06
2023-03-28T22:49:33.246Z,43.04
2023-03-28T22:52:02.784Z,43.05
2023-03-28T22:54:29.877Z,43.05
2023-03-28T22:56:56.358Z,43.04
2023-03-28T22:59:22.579Z,42.81
2023-03-28T23:01:48.498Z,42.87
2023-03-28T23:04:14.178Z,42.85
2023-03-28T23:06:40.664Z,42.83
2023-03-28T23:09:07.624Z,42.80
2023-03-28T23:11:34.801Z,43.09
2023-03-28T23:14:00.813Z,43.06
2023-03-28T23:16:26.969Z,43.00
2023-03-28T23:18:52.898Z,43.07
2023-03-28T23:21:18.613Z,42.96
2023-03-28T23:23:45.667Z,42.88
2023-03-28T23:26:12.391Z,42.84
2023-03-28T23:28:38.396Z,43.15
2023-03-28T23:31:04.838Z,42.84
2023-03-28T23:33:30.837Z,42.91
2023-03-28T23:35:56.608Z,42.92
2023-03-28T23:38:22.386Z,43.07
2023-03-28T23:40:48.048Z,42.94
2023-03-28T23:43:13.741Z,42.85
2023-03-28T23:45:39.549Z,43.02
2023-03-28T23:48:08.319Z,42.94
2023-03-28T23:50:34.534Z,42.99
2023-03-28T23:53:00.302Z,42.99
2023-03-28T23:55:26.219Z,43.06
2023-03-28T23:57:55.094Z,42.76
